Time;durP1;ratioP1;P1;durP2;ratioP2;P2;SDS_P1;SDS_P2;PMS_P1;PMS_P2;Temp;Humidity;BMP_temperature;BMP_pressure;BME280_temperature;BME280_humidity;BME280_pressure;Samples;Min_cycle;Max_cycle;Signal;HPM_P1;HPM_P2
2023/04/03 00:01:47;;;;;;;7.90;0.90;;;;;;;1.85;74.67;101114.80;110098;1272;23006;-57
2023/04/03 00:04:18;;;;;;;12.40;1.70;;;;;;;1.84;74.83;101117.79;110084;1276;23150;-57
2023/04/03 00:06:49;;;;;;;10.10;1.20;;;;;;;1.77;74.27;101117.96;110089;1272;22106;-56
2023/04/03 00:09:21;;;;;;;11.40;1.30;;;;;;;1.72;74.65;101118.21;110080;1276;22214;-57
2023/04/03 00:11:52;;;;;;;10.50;2.30;;;;;;;1.68;74.76;101118.31;110056;1276;23112;-56
2023/04/03 00:14:23;;;;;;;10.30;1.00;;;;;;;1.60;74.71;101117.14;110097;1270;22204;-57
2023/04/03 00:16:54;;;;;;;9.30;1.00;;;;;;;1.55;74.92;101122.42;110111;1279;22199;-55
2023/04/03 00:19:25;;;;;;;11.00;1.10;;;;;;;1.53;75.15;101127.39;110070;1274;22354;-57
2023/04/03 00:21:56;;;;;;;9.80;1.30;;;;;;;1.48;74.85;101126.85;110079;1276;22262;-55
2023/04/03 00:24:27;;;;;;;15.10;1.00;;;;;;;1.39;75.18;101129.30;110109;1274;23252;-59
2023/04/03 00:26:58;;;;;;;12.60;1.30;;;;;;;1.37;75.09;101130.48;110091;1271;23709;-58
2023/04/03 00:29:29;;;;;;;6.10;0.90;;;;;;;1.32;75.27;101129.38;110086;1270;22210;-59
2023/04/03 00:32:00;;;;;;;13.40;1.30;;;;;;;1.29;75.48;101135.11;110101;1279;22381;-58
2023/04/03 00:34:31;;;;;;;8.80;1.50;;;;;;;1.30;75.48;101138.04;110089;1279;22322;-55
2023/04/03 00:37:02;;;;;;;8.30;1.10;;;;;;;1.22;75.34;101139.92;110115;1273;22197;-56
2023/04/03 00:39:33;;;;;;;10.70;1.10;;;;;;;1.16;75.50;101137.96;110112;1274;22396;-57
2023/04/03 00:42:04;;;;;;;12.80;1.60;;;;;;;1.15;75.79;101136.79;110090;1272;22119;-57
2023/04/03 00:45:14;;;;;;;11.00;1.00;;;;;;;1.15;75.90;101137.96;110090;1273;22356;-58
2023/04/03 00:47:45;;;;;;;11.40;1.30;;;;;;;1.13;75.89;101139.69;109904;1276;22236;-57
2023/04/03 00:50:16;;;;;;;9.70;1.50;;;;;;;1.09;75.76;101140.08;109885;1276;22429;-56
2023/04/03 00:52:48;;;;;;;14.90;1.50;;;;;;;1.04;75.73;101136.55;109901;1280;22202;-58
2023/04/03 00:55:20;;;;;;;12.60;1.30;;;;;;;1.02;75.94;101137.18;109883;1277;22185;-60
2023/04/03 00:57:52;;;;;;;12.90;1.40;;;;;;;0.98;75.89;101136.23;109872;1276;22219;-57
2023/04/03 01:00:25;;;;;;;12.30;1.50;;;;;;;0.94;76.14;101133.88;109904;1280;22205;-58
2023/04/03 01:02:57;;;;;;;11.40;1.20;;;;;;;0.96;76.43;101141.73;109875;1277;22249;-57
2023/04/03 01:05:28;;;;;;;10.10;1.40;;;;;;;0.96;76.43;101142.05;109910;1273;22307;-57
2023/04/03 01:08:00;;;;;;;9.60;1.00;;;;;;;0.94;76.42;101146.04;109897;1276;22178;-56
2023/04/03 01:10:31;;;;;;;8.30;0.80;;;;;;;0.89;76.38;101148.56;109896;1282;22457;-56
2023/04/03 01:13:17;;;;;;;10.10;1.00;;;;;;;0.87;76.39;101148.17;109900;1276;22309;-56
2023/04/03 01:15:48;;;;;;;12.40;1.30;;;;;;;0.80;76.55;101151.54;109904;1278;22206;-56
2023/04/03 01:18:19;;;;;;;6.30;1.00;;;;;;;0.76;76.55;101149.97;109887;1276;22216;-55
2023/04/03 01:21:23;;;;;;;18.70;1.60;;;;;;;0.75;76.68;101151.61;109744;1273;23077;-58
2023/04/03 01:24:06;;;;;;;12.40;1.40;;;;;;;0.73;76.90;101152.70;109809;1273;22246;-58
2023/04/03 01:26:37;;;;;;;14.00;1.10;;;;;;;0.70;76.98;101154.27;109948;1270;22180;-58
2023/04/03 01:29:07;;;;;;;8.90;0.90;;;;;;;0.66;77.03;101151.60;109948;1273;22406;-54
2023/04/03 01:31:52;;;;;;;10.90;1.80;;;;;;;0.65;77.35;101157.48;109931;1281;22331;-57
2023/04/03 01:34:23;;;;;;;10.70;1.30;;;;;;;0.63;77.36;101156.61;109931;1274;23306;-59
2023/04/03 01:36:55;;;;;;;6.50;1.50;;;;;;;0.65;77.52;101158.81;109929;1276;22141;-57
2023/04/03 01:39:26;;;;;;;8.50;1.20;;;;;;;0.66;77.55;101157.09;109960;1270;22192;-55
2023/04/03 01:41:58;;;;;;;5.60;1.10;;;;;;;0.66;77.50;101162.27;109953;1273;22259;-57
2023/04/03 01:44:29;;;;;;;8.60;0.90;;;;;;;0.66;77.51;101165.40;109903;1273;22188;-57
2023/04/03 01:47:00;;;;;;;12.70;0.90;;;;;;;0.66;77.66;101165.48;109958;1274;22157;-59
2023/04/03 01:49:31;;;;;;;7.60;0.80;;;;;;;0.67;77.51;101167.69;109949;1281;22961;-58
2023/04/03 01:52:02;;;;;;;11.50;1.00;;;;;;;0.67;77.63;101168.00;109911;1270;22223;-54
2023/04/03 01:54:33;;;;;;;10.00;1.00;;;;;;;0.64;77.83;101167.13;109940;1281;22303;-57
2023/04/03 01:57:04;;;;;;;7.30;0.90;;;;;;;0.63;77.89;101174.11;109947;1267;22266;-59
2023/04/03 01:59:35;;;;;;;8.30;1.20;;;;;;;0.63;77.95;101169.10;109942;1273;23329;-57
2023/04/03 02:02:06;;;;;;;8.10;1.00;;;;;;;0.62;78.06;101170.65;109952;1273;22310;-58
2023/04/03 02:04:37;;;;;;;13.40;1.10;;;;;;;0.64;78.32;101169.41;109962;1281;22334;-56
2023/04/03 02:07:08;;;;;;;7.00;1.40;;;;;;;0.67;78.36;101170.59;109969;1273;22361;-58
2023/04/03 02:09:39;;;;;;;9.00;1.10;;;;;;;0.65;78.15;101169.48;109985;1273;22201;-57
2023/04/03 02:12:10;;;;;;;18.00;1.60;;;;;;;0.64;78.32;101176.00;109959;1279;22229;-58
2023/04/03 02:14:41;;;;;;;9.60;0.90;;;;;;;0.61;78.18;101174.42;109972;1270;22180;-57
2023/04/03 02:17:12;;;;;;;7.00;0.80;;;;;;;0.57;78.30;101170.50;109946;1267;22165;-59
2023/04/03 02:19:43;;;;;;;11.20;1.30;;;;;;;0.52;78.40;101169.85;110001;1279;23014;-58
2023/04/03 02:22:14;;;;;;;10.80;0.90;;;;;;;0.50;78.59;101167.02;110015;1276;22240;-55
2023/04/03 02:24:44;;;;;;;4.70;0.50;;;;;;;0.50;78.87;101167.80;110075;1264;23109;-56
2023/04/03 02:27:15;;;;;;;7.20;0.90;;;;;;;0.48;78.68;101161.05;110063;1273;22130;-56
2023/04/03 02:29:46;;;;;;;12.60;1.40;;;;;;;0.45;78.99;101167.88;110089;1271;22169;-58
2023/04/03 02:32:17;;;;;;;10.90;1.00;;;;;;;0.46;79.17;101164.66;110058;1273;22900;-56
2023/04/03 02:34:48;;;;;;;7.80;1.30;;;;;;;0.42;79.19;101164.80;110084;1273;22165;-58
2023/04/03 02:37:19;;;;;;;12.40;1.60;;;;;;;0.41;79.49;101168.40;110089;1273;22257;-58
2023/04/03 02:39:50;;;;;;;9.90;1.00;;;;;;;0.38;79.41;101174.60;110066;1264;22299;-58
2023/04/03 02:42:22;;;;;;;7.50;1.00;;;;;;;0.37;79.58;101175.55;110075;1273;22360;-58
2023/04/03 02:44:53;;;;;;;10.20;1.20;;;;;;;0.36;79.61;101180.01;110019;1273;22240;-57
2023/04/03 02:47:24;;;;;;;9.70;1.20;;;;;;;0.34;79.69;101176.70;110049;1271;22949;-57
2023/04/03 02:49:55;;;;;;;7.10;0.80;;;;;;;0.32;79.80;101180.08;110066;1279;22904;-57
2023/04/03 02:52:26;;;;;;;9.60;1.30;;;;;;;0.28;79.79;101184.05;110044;1267;22252;-57
2023/04/03 02:54:57;;;;;;;17.50;1.30;;;;;;;0.29;80.21;101185.01;110072;1267;22262;-56
2023/04/03 02:57:27;;;;;;;11.20;1.40;;;;;;;0.26;80.05;101186.86;110069;1273;22996;-57
2023/04/03 02:59:58;;;;;;;12.90;1.60;;;;;;;0.22;79.99;101183.24;110073;1272;22249;-57
2023/04/03 03:02:29;;;;;;;8.10;0.80;;;;;;;0.22;80.19;101187.17;110051;1265;22619;-58
2023/04/03 03:05:00;;;;;;;8.30;1.50;;;;;;;0.21;80.31;101193.13;110080;1279;22247;-60
2023/04/03 03:07:31;;;;;;;10.70;1.40;;;;;;;0.19;80.20;101196.80;110082;1279;22358;-57
2023/04/03 03:10:02;;;;;;;10.70;0.90;;;;;;;0.16;80.28;101194.59;110061;1273;22198;-56
2023/04/03 03:12:33;;;;;;;11.50;1.90;;;;;;;0.14;80.42;101196.70;106681;1273;24394;-57
2023/04/03 03:15:04;;;;;;;13.50;1.20;;;;;;;0.08;80.42;101196.91;105982;1278;22540;-57
2023/04/03 03:17:36;;;;;;;9.80;1.10;;;;;;;0.03;80.63;101194.06;110055;1272;23082;-56
2023/04/03 03:20:08;;;;;;;11.90;1.20;;;;;;;-0.02;80.72;101193.95;110072;1271;22365;-54
2023/04/03 03:22:39;;;;;;;6.40;0.90;;;;;;;-0.05;80.90;101198.73;110066;1279;22196;-57
2023/04/03 03:25:11;;;;;;;10.20;1.00;;;;;;;-0.10;80.89;101201.22;110099;1269;22145;-57
2023/04/03 03:27:42;;;;;;;14.80;1.80;;;;;;;-0.10;81.14;101198.62;110079;1272;22940;-57
2023/04/03 03:30:14;;;;;;;10.40;1.30;;;;;;;-0.14;81.12;101203.45;110072;1264;22230;-57
2023/04/03 03:32:45;;;;;;;8.10;1.10;;;;;;;-0.14;81.19;101209.18;110058;1264;22267;-56
2023/04/03 03:35:16;;;;;;;11.10;1.30;;;;;;;-0.13;81.27;101210.36;110073;1272;22251;-57
2023/04/03 03:37:46;;;;;;;9.70;1.20;;;;;;;-0.13;81.31;101210.05;110055;1271;22251;-58
2023/04/03 03:40:18;;;;;;;5.90;1.00;;;;;;;-0.17;81.33;101212.63;110048;1273;22203;-57
2023/04/03 03:42:49;;;;;;;9.70;0.90;;;;;;;-0.16;81.54;101214.18;110063;1268;22177;-57
2023/04/03 03:45:20;;;;;;;7.90;0.90;;;;;;;-0.21;81.57;101217.05;110061;1274;22133;-60
2023/04/03 03:47:51;;;;;;;7.80;1.10;;;;;;;-0.24;81.60;101216.58;107225;1274;22520;-57
2023/04/03 03:50:22;;;;;;;16.90;1.10;;;;;;;-0.28;81.64;101217.02;110083;1271;22135;-59
2023/04/03 03:52:53;;;;;;;13.80;1.50;;;;;;;-0.31;81.81;101220.98;110041;1279;22561;-58
2023/04/03 03:55:24;;;;;;;13.00;1.90;;;;;;;-0.37;81.82;101222.43;110044;1273;22160;-63
2023/04/03 03:57:55;;;;;;;11.90;1.20;;;;;;;-0.41;81.84;101223.12;110049;1273;22155;-62
2023/04/03 04:00:26;;;;;;;11.10;1.60;;;;;;;-0.43;82.01;101223.03;110087;1267;22155;-63
2023/04/03 04:02:57;;;;;;;14.50;1.10;;;;;;;-0.39;82.41;101221.48;110052;1277;22181;-63
2023/04/03 04:05:28;;;;;;;15.20;1.20;;;;;;;-0.42;82.36;101225.92;110122;1264;22220;-61
2023/04/03 04:07:59;;;;;;;8.30;2.10;;;;;;;-0.45;82.43;101225.11;110044;1273;22368;-61
2023/04/03 04:10:30;;;;;;;11.70;1.40;;;;;;;-0.44;82.45;101228.04;110107;1272;22313;-59
2023/04/03 04:13:01;;;;;;;15.10;1.60;;;;;;;-0.45;82.62;101229.52;110071;1268;22563;-59
2023/04/03 04:15:32;;;;;;;10.50;1.80;;;;;;;-0.45;82.58;101230.77;110128;1273;22710;-58
2023/04/03 04:18:03;;;;;;;6.20;1.20;;;;;;;-0.45;82.56;101231.23;110092;1271;22190;-59
2023/04/03 04:20:34;;;;;;;10.40;1.50;;;;;;;-0.50;82.77;101234.90;110060;1273;23239;-58
2023/04/03 04:23:05;;;;;;;11.90;1.40;;;;;;;-0.53;82.80;101238.86;110061;1272;23111;-58
2023/04/03 04:25:36;;;;;;;12.10;1.40;;;;;;;-0.57;83.01;101239.05;107184;1274;24345;-60
2023/04/03 04:28:07;;;;;;;11.70;1.40;;;;;;;-0.59;82.87;101244.52;106479;1265;22551;-58
2023/04/03 04:30:38;;;;;;;11.50;1.80;;;;;;;-0.59;83.01;101247.89;110013;1272;22183;-60
2023/04/03 04:33:09;;;;;;;12.20;1.90;;;;;;;-0.60;83.12;101249.30;110089;1273;22855;-60
2023/04/03 04:35:42;;;;;;;9.50;1.30;;;;;;;-0.60;83.40;101254.08;110130;1274;22337;-61
2023/04/03 04:38:13;;;;;;;11.10;1.90;;;;;;;-0.63;83.37;101258.20;110098;1279;22323;-60
2023/04/03 04:40:44;;;;;;;11.50;1.40;;;;;;;-0.62;83.53;101262.13;110091;1279;22274;-61
2023/04/03 04:43:15;;;;;;;17.20;1.90;;;;;;;-0.67;83.34;101263.73;110062;1267;22624;-59
2023/04/03 04:45:46;;;;;;;13.60;1.40;;;;;;;-0.67;83.70;101269.45;110097;1271;22312;-60
2023/04/03 04:48:17;;;;;;;6.40;1.40;;;;;;;-0.63;83.83;101270.98;110116;1273;22931;-59
2023/04/03 04:50:48;;;;;;;9.30;2.60;;;;;;;-0.62;83.58;101274.35;110089;1273;22201;-60
2023/04/03 04:53:19;;;;;;;12.00;1.60;;;;;;;-0.64;83.57;101273.17;110115;1271;22207;-60
2023/04/03 04:55:50;;;;;;;9.60;1.20;;;;;;;-0.65;83.68;101275.51;110113;1272;22172;-60
2023/04/03 04:58:21;;;;;;;8.80;1.20;;;;;;;-0.71;83.73;101281.48;110093;1274;22555;-59
2023/04/03 05:00:58;;;;;;;9.50;1.50;;;;;;;-0.67;84.05;101282.45;110072;1274;22219;-59
2023/04/03 05:03:29;;;;;;;6.60;1.00;;;;;;;-0.63;84.01;101283.20;110112;1273;22256;-60
2023/04/03 05:06:00;;;;;;;10.90;1.50;;;;;;;-0.63;83.81;101285.70;110097;1273;22197;-60
2023/04/03 05:08:32;;;;;;;10.50;1.00;;;;;;;-0.64;83.87;101287.17;110131;1277;22324;-59
2023/04/03 05:11:02;;;;;;;8.80;1.00;;;;;;;-0.63;83.91;101287.97;110102;1271;22300;-61
2023/04/03 05:13:33;;;;;;;6.10;1.00;;;;;;;-0.60;83.96;101288.95;110093;1279;22644;-60
2023/04/03 05:16:05;;;;;;;6.20;0.80;;;;;;;-0.58;84.14;101293.42;110111;1274;22225;-60
2023/04/03 05:18:36;;;;;;;12.70;1.50;;;;;;;-0.58;84.22;101294.52;110093;1276;23040;-60
2023/04/03 05:21:07;;;;;;;7.00;1.40;;;;;;;-0.56;84.19;101293.13;110114;1273;22959;-59
2023/04/03 05:23:38;;;;;;;12.70;0.80;;;;;;;-0.54;84.10;101297.78;110091;1273;22181;-59
2023/04/03 05:26:08;;;;;;;10.20;1.20;;;;;;;-0.53;84.22;101299.43;110064;1263;22433;-58
2023/04/03 05:28:40;;;;;;;7.40;1.00;;;;;;;-0.51;84.20;101305.02;110052;1279;22421;-58
2023/04/03 05:31:11;;;;;;;9.10;1.10;;;;;;;-0.47;84.33;101307.48;110056;1264;22251;-58
2023/04/03 05:33:41;;;;;;;10.40;0.80;;;;;;;-0.45;84.34;101311.48;110073;1267;22252;-58
2023/04/03 05:36:13;;;;;;;6.50;1.20;;;;;;;-0.45;84.15;101311.17;110084;1264;23105;-59
2023/04/03 05:38:44;;;;;;;19.60;1.50;;;;;;;-0.44;84.37;101309.94;110058;1271;22185;-59
2023/04/03 05:41:15;;;;;;;7.50;1.00;;;;;;;-0.40;84.45;101312.08;110055;1264;22226;-58
2023/04/03 05:43:46;;;;;;;8.10;1.40;;;;;;;-0.36;84.53;101311.80;110059;1273;23144;-59
2023/04/03 05:46:20;;;;;;;5.50;1.00;;;;;;;-0.31;84.60;101312.55;110032;1273;23055;-57
2023/04/03 05:48:51;;;;;;;7.10;0.90;;;;;;;-0.28;84.34;101320.73;110065;1271;22217;-58
2023/04/03 05:51:25;;;;;;;14.50;1.30;;;;;;;-0.25;84.40;101315.42;110075;1275;22682;-57
2023/04/03 05:54:01;;;;;;;8.00;1.20;;;;;;;-0.19;84.49;101319.55;110096;1271;22168;-58
2023/04/03 05:56:32;;;;;;;9.00;1.10;;;;;;;-0.19;84.29;101321.20;110061;1273;22518;-59
2023/04/03 05:59:03;;;;;;;11.70;1.10;;;;;;;-0.17;84.31;101325.05;109740;1273;22425;-58
2023/04/03 06:01:35;;;;;;;14.50;1.00;;;;;;;-0.14;84.25;101324.70;109821;1271;22370;-58
2023/04/03 06:04:08;;;;;;;12.20;1.50;;;;;;;-0.11;84.11;101324.00;110058;1273;22296;-59
2023/04/03 06:06:57;;;;;;;7.50;1.10;;;;;;;-0.07;84.27;101325.75;110041;1267;22154;-59
2023/04/03 06:09:29;;;;;;;15.50;2.30;;;;;;;-0.03;84.14;101324.30;110070;1267;22234;-58
2023/04/03 06:12:01;;;;;;;9.90;1.30;;;;;;;-0.01;84.32;101326.05;110093;1276;22250;-59
2023/04/03 06:14:31;;;;;;;8.70;1.30;;;;;;;0.05;84.45;101321.85;110083;1274;22169;-59
2023/04/03 06:17:02;;;;;;;13.70;1.50;;;;;;;0.11;84.40;101330.27;110098;1271;22181;-59
2023/04/03 06:19:34;;;;;;;9.30;1.20;;;;;;;0.16;84.20;101326.62;109991;1273;22327;-57
2023/04/03 06:22:04;;;;;;;7.80;1.10;;;;;;;0.19;84.01;101330.98;110029;1267;22227;-58
2023/04/03 06:24:35;;;;;;;11.40;1.40;;;;;;;0.22;84.00;101331.61;106676;1271;22619;-66
2023/04/03 06:27:07;;;;;;;14.60;2.50;;;;;;;0.26;83.87;101335.57;105910;1278;22619;-58
2023/04/03 06:29:39;;;;;;;11.60;1.50;;;;;;;0.29;83.98;101334.95;109805;1273;22280;-59
2023/04/03 06:32:09;;;;;;;8.50;1.50;;;;;;;0.33;83.63;101334.35;110027;1271;23667;-58
2023/04/03 06:34:41;;;;;;;13.10;1.30;;;;;;;0.35;83.78;101336.33;109997;1279;22149;-59
2023/04/03 06:37:17;;;;;;;11.70;1.80;;;;;;;0.40;83.81;101342.87;110036;1271;23081;-58
2023/04/03 06:39:48;;;;;;;14.50;1.80;;;;;;;0.47;83.74;101349.10;110009;1267;22215;-59
2023/04/03 06:42:19;;;;;;;9.90;1.30;;;;;;;0.52;83.81;101350.88;110038;1267;22226;-58
2023/04/03 06:44:50;;;;;;;10.90;1.30;;;;;;;0.59;83.71;101351.30;110006;1273;22202;-58
2023/04/03 06:47:21;;;;;;;8.00;1.10;;;;;;;0.62;82.85;101350.77;110085;1271;22311;-58
2023/04/03 06:49:52;;;;;;;11.50;1.40;;;;;;;0.65;83.07;101352.89;110062;1276;22194;-59
2023/04/03 06:52:23;;;;;;;10.50;1.30;;;;;;;0.69;82.90;101354.88;110045;1267;22950;-59
2023/04/03 06:54:57;;;;;;;12.00;1.40;;;;;;;0.74;82.93;101355.29;110040;1275;23164;-58
2023/04/03 06:57:27;;;;;;;13.00;1.50;;;;;;;0.82;83.11;101366.02;110038;1267;22272;-57
2023/04/03 06:59:58;;;;;;;6.30;1.10;;;;;;;0.88;82.87;101366.43;109908;1264;173695;-58
2023/04/03 07:02:29;;;;;;;10.50;2.20;;;;;;;0.92;82.45;101365.43;110049;1271;22367;-58
2023/04/03 07:05:00;;;;;;;16.50;1.70;;;;;;;0.96;82.22;101375.66;110063;1271;22154;-59
2023/04/03 07:07:32;;;;;;;9.40;1.40;;;;;;;0.99;81.78;101375.44;110062;1279;23552;-59
2023/04/03 07:10:03;;;;;;;9.70;1.20;;;;;;;1.04;81.99;101375.61;110045;1273;22116;-59
2023/04/03 07:12:34;;;;;;;8.40;1.50;;;;;;;1.11;81.98;101374.87;110003;1265;22257;-56
2023/04/03 07:15:07;;;;;;;12.80;3.10;;;;;;;1.20;82.13;101377.55;110045;1274;22182;-58
2023/04/03 07:17:37;;;;;;;9.10;1.40;;;;;;;1.31;81.90;101384.59;110065;1273;22225;-57
2023/04/03 07:20:10;;;;;;;8.00;1.30;;;;;;;1.37;80.39;101378.88;110013;1264;22422;-57
2023/04/03 07:22:41;;;;;;;6.30;1.40;;;;;;;1.42;80.75;101379.98;110020;1267;22244;-56
2023/04/03 07:25:12;;;;;;;5.50;1.10;;;;;;;1.49;80.20;101384.56;110015;1277;22189;-59
2023/04/03 07:27:43;;;;;;;9.50;1.30;;;;;;;1.55;80.17;101382.45;110053;1274;22184;-58
2023/04/03 07:30:15;;;;;;;8.50;1.30;;;;;;;1.61;79.94;101389.45;110030;1272;23110;-58
2023/04/03 07:32:47;;;;;;;10.10;1.20;;;;;;;1.66;80.47;101392.38;110034;1267;22838;-59
2023/04/03 07:35:18;;;;;;;8.40;1.10;;;;;;;1.73;80.38;101390.27;110059;1271;22244;-57
2023/04/03 07:37:49;;;;;;;6.00;1.30;;;;;;;1.79;80.27;101393.02;110040;1279;22283;-57
2023/04/03 07:40:21;;;;;;;8.10;1.60;;;;;;;1.83;80.02;101392.32;110047;1274;22177;-58
2023/04/03 07:42:52;;;;;;;5.60;0.90;;;;;;;1.86;80.25;101392.74;110022;1267;23106;-59
2023/04/03 07:45:23;;;;;;;9.40;1.10;;;;;;;1.91;80.20;101389.66;110057;1273;22378;-58
2023/04/03 07:47:54;;;;;;;5.90;1.00;;;;;;;1.95;78.93;101390.05;109988;1267;22395;-57
2023/04/03 07:50:26;;;;;;;6.90;1.00;;;;;;;1.98;78.38;101385.80;110026;1271;22287;-58
2023/04/03 07:52:57;;;;;;;14.50;1.50;;;;;;;2.00;77.70;101384.86;110051;1279;22244;-59
2023/04/03 07:55:28;;;;;;;7.00;1.00;;;;;;;2.03;77.93;101386.66;110045;1279;22117;-57
2023/04/03 07:57:59;;;;;;;6.50;0.80;;;;;;;2.07;77.01;101387.08;110041;1273;23249;-57
2023/04/03 08:00:30;;;;;;;5.20;0.70;;;;;;;2.12;77.02;101387.30;109885;1273;167383;-58
2023/04/03 08:03:01;;;;;;;10.40;1.30;;;;;;;2.15;77.34;101391.79;110032;1273;22168;-59
2023/04/03 08:05:32;;;;;;;8.50;1.40;;;;;;;2.22;77.79;101391.94;110065;1264;22314;-58
2023/04/03 08:08:03;;;;;;;6.80;1.20;;;;;;;2.30;77.39;101392.56;110037;1271;22207;-59
2023/04/03 08:10:34;;;;;;;10.60;1.40;;;;;;;2.41;77.73;101396.89;110069;1279;22414;-58
2023/04/03 08:13:06;;;;;;;7.00;1.20;;;;;;;2.50;77.87;101393.33;110040;1267;22396;-58
2023/04/03 08:15:37;;;;;;;9.10;1.40;;;;;;;2.60;77.25;101395.20;110049;1271;22515;-58
2023/04/03 08:18:08;;;;;;;17.70;1.70;;;;;;;2.67;76.63;101394.09;110043;1267;22379;-57
2023/04/03 08:20:40;;;;;;;9.70;1.30;;;;;;;2.79;77.23;101391.77;110044;1273;22236;-58
2023/04/03 08:23:12;;;;;;;7.40;1.20;;;;;;;2.87;75.71;101388.52;110024;1267;22210;-58
2023/04/03 08:25:43;;;;;;;9.50;1.70;;;;;;;2.93;75.98;101392.98;110066;1279;22269;-56
2023/04/03 08:28:14;;;;;;;9.10;1.40;;;;;;;2.93;73.92;101389.60;110059;1267;22161;-58
2023/04/03 08:30:45;;;;;;;7.60;1.00;;;;;;;2.93;75.16;101385.65;110062;1267;22949;-58
2023/04/03 08:33:16;;;;;;;8.60;0.90;;;;;;;2.96;74.76;101387.23;110047;1265;22269;-58
2023/04/03 08:35:47;;;;;;;6.20;1.20;;;;;;;2.99;74.57;101389.89;110051;1267;22344;-58
2023/04/03 08:38:18;;;;;;;5.50;1.00;;;;;;;3.02;74.83;101389.95;110048;1271;22387;-59
2023/04/03 08:41:00;;;;;;;8.40;1.00;;;;;;;3.06;73.83;101388.98;110082;1271;22269;-59
2023/04/03 08:43:41;;;;;;;5.30;0.80;;;;;;;3.10;73.67;101387.30;110054;1271;22324;-59
2023/04/03 08:46:15;;;;;;;7.30;0.90;;;;;;;3.13;72.99;101390.47;110054;1274;22180;-58
2023/04/03 08:48:47;;;;;;;5.20;0.80;;;;;;;3.16;73.97;101391.80;110044;1274;22391;-59
2023/04/03 08:51:20;;;;;;;5.70;0.80;;;;;;;3.21;73.94;101388.46;110070;1267;22359;-59
2023/04/03 08:54:00;;;;;;;11.00;1.00;;;;;;;3.25;72.67;101388.91;110008;1264;22150;-58
2023/04/03 08:56:34;;;;;;;5.20;0.70;;;;;;;3.30;72.32;101385.09;110102;1264;22330;-58
2023/04/03 08:59:11;;;;;;;6.60;0.90;;;;;;;3.32;70.81;101384.14;110029;1271;24107;-59
2023/04/03 09:01:43;;;;;;;5.30;0.70;;;;;;;3.36;72.42;101383.66;110076;1274;22221;-58
2023/04/03 09:04:16;;;;;;;7.50;0.90;;;;;;;3.36;71.07;101386.09;110062;1267;22155;-58
2023/04/03 09:06:51;;;;;;;5.20;0.50;;;;;;;3.34;69.88;101389.35;110063;1272;23471;-58
2023/04/03 09:09:32;;;;;;;7.20;0.90;;;;;;;3.30;70.30;101389.83;110078;1274;22254;-59
2023/04/03 09:12:09;;;;;;;;;;;;;;;3.29;69.70;101391.71;110036;1274;22336;-58
2023/04/03 09:14:45;;;;;;;5.00;0.60;;;;;;;3.32;69.13;101387.14;110080;1267;22286;-59
2023/04/03 09:17:23;;;;;;;3.70;0.70;;;;;;;3.42;68.67;101384.25;106439;1264;24336;-59
2023/04/03 09:19:59;;;;;;;4.50;0.60;;;;;;;3.51;68.72;101382.39;105819;1279;27688;-58
2023/04/03 09:22:34;;;;;;;9.70;0.80;;;;;;;3.58;68.59;101391.51;105776;1277;22547;-59
2023/04/03 09:25:13;;;;;;;6.10;0.60;;;;;;;3.60;67.89;101394.73;110063;1274;22291;-59
2023/04/03 09:27:45;;;;;;;4.20;0.70;;;;;;;3.57;66.81;101394.58;110113;1274;22148;-59
2023/04/03 09:30:18;;;;;;;5.80;0.70;;;;;;;3.55;65.28;101389.78;110065;1274;23203;-59
2023/04/03 09:32:52;;;;;;;5.00;0.70;;;;;;;3.56;65.57;101388.91;110054;1274;22843;-59
2023/04/03 09:35:27;;;;;;;5.00;0.60;;;;;;;3.63;66.16;101401.80;110107;1264;22375;-58
2023/04/03 09:38:01;;;;;;;4.10;0.70;;;;;;;3.64;65.25;101400.29;110042;1279;22215;-58
2023/04/03 09:40:39;;;;;;;5.40;0.70;;;;;;;3.70;65.51;101401.12;110065;1271;22173;-59
2023/04/03 09:43:26;;;;;;;5.40;0.70;;;;;;;3.79;66.08;101401.14;110068;1267;22149;-59
2023/04/03 09:46:16;;;;;;;4.30;0.70;;;;;;;3.85;65.93;101404.41;110060;1267;22184;-58
2023/04/03 09:48:52;;;;;;;;;;;;;;;3.90;64.36;101402.73;110065;1274;22452;-59
2023/04/03 09:51:28;;;;;;;6.00;0.90;;;;;;;3.98;64.86;101404.16;110064;1273;22219;-58
2023/04/03 09:53:59;;;;;;;5.10;0.60;;;;;;;4.08;62.87;101400.54;110038;1274;22312;-59
2023/04/03 09:56:31;;;;;;;5.80;0.90;;;;;;;4.14;63.38;101401.36;110089;1267;23192;-59
2023/04/03 09:59:17;;;;;;;5.80;1.20;;;;;;;4.14;63.54;101401.05;110023;1264;22300;-58
2023/04/03 10:02:00;;;;;;;7.50;0.70;;;;;;;4.07;63.41;101410.88;110036;1279;22209;-58
2023/04/03 10:04:41;;;;;;;5.00;0.60;;;;;;;4.06;62.14;101408.44;109993;1271;22320;-59
2023/04/03 10:07:33;;;;;;;2.60;0.50;;;;;;;4.07;62.55;101401.09;110071;1276;23114;-56
2023/04/03 10:10:20;;;;;;;3.40;0.70;;;;;;;4.14;62.44;101395.98;110036;1267;22207;-58
2023/04/03 10:13:04;;;;;;;6.90;1.00;;;;;;;4.24;61.29;101394.48;110027;1274;22198;-59
2023/04/03 10:15:42;;;;;;;4.80;0.70;;;;;;;4.23;61.81;101395.67;110073;1273;22475;-58
2023/04/03 10:18:33;;;;;;;9.80;0.80;;;;;;;4.17;62.41;101390.36;110080;1276;22299;-58
2023/04/03 10:21:12;;;;;;;4.50;0.70;;;;;;;4.17;62.00;101389.34;109978;1278;23026;-59
2023/04/03 10:23:47;;;;;;;5.30;0.80;;;;;;;4.16;62.13;101396.20;110045;1274;22182;-59
2023/04/03 10:26:30;;;;;;;5.70;0.80;;;;;;;4.13;62.35;101390.16;109320;1271;25115;-58
2023/04/03 10:29:10;;;;;;;8.80;0.90;;;;;;;4.20;62.70;101386.38;110092;1271;22179;-58
2023/04/03 10:31:51;;;;;;;5.70;1.10;;;;;;;4.35;61.39;101390.11;110072;1279;22291;-59
2023/04/03 10:34:25;;;;;;;5.80;0.50;;;;;;;4.47;61.21;101389.70;110049;1274;22125;-57
2023/04/03 10:37:02;;;;;;;6.20;0.80;;;;;;;4.46;59.92;101388.42;110065;1267;23107;-61
2023/04/03 10:39:40;;;;;;;7.10;0.70;;;;;;;4.43;60.16;101387.60;110088;1274;22176;-60
2023/04/03 10:42:19;;;;;;;3.10;0.50;;;;;;;4.43;60.36;101381.98;110125;1271;22274;-61
2023/04/03 10:45:20;;;;;;;6.20;0.60;;;;;;;4.43;60.29;101380.33;110083;1270;22157;-57
2023/04/03 10:48:02;;;;;;;6.50;0.80;;;;;;;4.42;58.85;101384.38;110035;1274;22881;-59
2023/04/03 10:50:44;;;;;;;5.50;0.70;;;;;;;4.40;59.33;101382.89;110080;1274;22171;-59
2023/04/03 10:53:23;;;;;;;7.70;0.70;;;;;;;4.42;59.45;101383.50;110102;1271;22196;-60
2023/04/03 13:27:36;;;;;;;4.10;0.70;;;;;;;5.33;50.19;101328.42;106420;1262;22652;-59
2023/04/03 13:30:21;;;;;;;6.30;0.70;;;;;;;5.37;48.62;101327.34;106226;1275;22733;-58
2023/04/03 13:32:54;;;;;;;4.90;0.70;;;;;;;5.38;47.85;101330.24;106238;1276;26599;-58
2023/04/03 13:35:33;;;;;;;3.00;0.60;;;;;;;5.39;47.35;101335.30;110269;1272;22311;-59
2023/04/03 13:38:08;;;;;;;5.30;0.60;;;;;;;5.34;47.61;101339.31;110231;1272;23082;-59
2023/04/03 13:40:52;;;;;;;6.20;0.80;;;;;;;5.30;48.61;101339.54;110188;1271;22183;-59
2023/04/03 13:43:25;;;;;;;6.90;1.00;;;;;;;5.26;48.96;101343.00;110215;1266;22337;-60
2023/04/03 13:46:06;;;;;;;4.00;0.70;;;;;;;5.22;48.77;101339.82;110212;1276;22187;-61
2023/04/03 13:48:40;;;;;;;;;;;;;;;5.20;48.38;101336.83;110205;1271;22427;-58
2023/04/03 13:51:22;;;;;;;3.10;0.70;;;;;;;5.24;47.61;101330.67;110220;1274;22133;-58
2023/04/03 13:53:57;;;;;;;3.10;1.00;;;;;;;5.28;47.75;101335.14;110222;1274;22360;-59
2023/04/03 13:56:35;;;;;;;7.30;1.40;;;;;;;5.31;47.87;101332.71;110220;1270;23127;-61
2023/04/03 13:59:25;;;;;;;13.20;3.10;;;;;;;5.32;47.84;101334.13;109960;1263;22925;-59
2023/04/03 14:02:14;;;;;;;14.50;2.80;;;;;;;5.25;47.28;101334.95;110077;1270;22228;-61
2023/04/03 14:04:58;;;;;;;9.10;2.20;;;;;;;5.16;47.17;101338.55;110181;1270;22715;-59
2023/04/03 14:59:33;;;;;;;12.30;2.10;;;;;;;5.04;47.40;101330.79;106131;1271;23456;-59
2023/04/03 15:02:16;;;;;;;7.50;1.10;;;;;;;4.98;47.17;101330.63;109266;1271;25349;-59
2023/04/03 15:04:49;;;;;;;8.30;1.70;;;;;;;4.99;47.15;101325.55;106535;1278;25296;-59
2023/04/03 15:07:20;;;;;;;12.60;1.90;;;;;;;5.02;47.10;101325.60;108077;1276;22479;-59
2023/04/03 15:09:51;;;;;;;7.30;1.50;;;;;;;5.01;46.45;101325.30;106121;1274;24269;-59
2023/04/03 15:12:22;;;;;;;9.80;2.10;;;;;;;4.97;47.61;101333.33;106146;1272;25336;-58
2023/04/03 15:14:53;;;;;;;9.00;1.80;;;;;;;4.91;47.41;101331.90;106183;1258;22521;-58